createdAt,value
2018-12-14T00:00:30.691Z,0.00
2018-12-14T00:02:59.734Z,0.00
2018-12-14T00:05:28.799Z,0.00
2018-12-14T00:07:57.892Z,0.10
2018-12-14T00:10:26.936Z,0.10
2018-12-14T00:12:56.015Z,0.00
2018-12-14T00:15:25.145Z,0.00
2018-12-14T00:17:54.241Z,0.00
2018-12-14T00:20:23.311Z,0.00
2018-12-14T00:22:52.391Z,0.00
2018-12-14T00:25:21.476Z,0.00
2018-12-14T00:27:50.532Z,0.00
2018-12-14T00:30:19.653Z,0.00
2018-12-14T00:32:48.761Z,-0.10
2018-12-14T00:35:18.371Z,-0.10
2018-12-14T00:37:47.659Z,-0.10
2018-12-14T00:40:16.790Z,-0.20
2018-12-14T00:42:46.726Z,-0.20
2018-12-14T00:45:15.799Z,-0.20
2018-12-14T00:47:45.639Z,-0.20
2018-12-14T00:50:14.789Z,-0.20
2018-12-14T00:52:43.856Z,-0.30
2018-12-14T00:55:13.088Z,-0.30
2018-12-14T00:57:42.152Z,-0.30
2018-12-14T01:00:11.815Z,-0.30
2018-12-14T01:02:40.939Z,-0.30
2018-12-14T01:05:09.994Z,-0.30
2018-12-14T01:07:39.090Z,-0.40
2018-12-14T01:10:08.359Z,-0.40
2018-12-14T01:12:37.451Z,-0.50
2018-12-14T01:15:06.879Z,-0.40
2018-12-14T01:17:36.001Z,-0.30
2018-12-14T01:20:07.011Z,-0.40
2018-12-14T01:22:36.120Z,-0.40
2018-12-14T01:25:05.471Z,-0.40
2018-12-14T01:27:34.842Z,-0.40
2018-12-14T01:30:04.495Z,-0.40
2018-12-14T01:32:33.585Z,-0.40
2018-12-14T01:35:02.651Z,-0.40
2018-12-14T01:37:31.729Z,-0.40
2018-12-14T01:40:00.815Z,-0.40
2018-12-14T01:42:29.879Z,-0.30
2018-12-14T01:44:58.935Z,-0.30
2018-12-14T01:47:28.019Z,-0.30
2018-12-14T01:49:57.693Z,-0.30
2018-12-14T01:52:26.983Z,-0.30
2018-12-14T01:54:56.624Z,-0.30
2018-12-14T01:57:25.835Z,-0.40
2018-12-14T01:59:54.914Z,-0.40
2018-12-14T02:02:24.019Z,-0.40
2018-12-14T02:04:53.081Z,-0.40
2018-12-14T02:07:22.144Z,-0.40
2018-12-14T02:09:51.385Z,-0.40
2018-12-14T02:12:20.473Z,-0.40
2018-12-14T02:14:49.543Z,-0.40
2018-12-14T02:17:18.637Z,-0.40
2018-12-14T02:19:47.875Z,-0.40
2018-12-14T02:22:16.934Z,-0.40
2018-12-14T02:24:46.043Z,-0.40
2018-12-14T02:27:15.106Z,-0.40
2018-12-14T02:29:44.167Z,-0.40
2018-12-14T02:32:13.397Z,-0.40
2018-12-14T02:34:42.591Z,-0.40
2018-12-14T02:37:11.667Z,-0.40
2018-12-14T02:39:40.793Z,-0.40
2018-12-14T02:42:09.868Z,-0.40
2018-12-14T02:44:38.957Z,-0.40
2018-12-14T02:47:08.071Z,-0.40
2018-12-14T02:49:37.151Z,-0.40
2018-12-14T02:52:06.640Z,-0.40
2018-12-14T02:54:35.865Z,-0.40
2018-12-14T02:57:04.970Z,-0.40
2018-12-14T02:59:34.141Z,-0.40
2018-12-14T03:02:03.619Z,-0.40
2018-12-14T03:04:32.681Z,-0.40
2018-12-14T03:07:01.741Z,-0.40
2018-12-14T03:09:30.859Z,-0.40
2018-12-14T03:11:59.935Z,-0.30
2018-12-14T03:14:29.029Z,-0.30
2018-12-14T03:16:58.401Z,-0.30
2018-12-14T03:19:27.527Z,-0.40
2018-12-14T03:21:56.645Z,-0.40
2018-12-14T03:24:25.775Z,-0.40
2018-12-14T03:26:54.869Z,-0.40
2018-12-14T03:29:23.952Z,-0.40
2018-12-14T03:31:53.031Z,-0.30
2018-12-14T03:34:22.092Z,-0.30
2018-12-14T03:36:51.134Z,-0.30
2018-12-14T03:39:20.246Z,-0.30
2018-12-14T03:41:49.311Z,-0.40
2018-12-14T03:44:18.403Z,-0.30
2018-12-14T03:46:47.696Z,-0.40
2018-12-14T03:49:16.754Z,-0.30
2018-12-14T03:51:46.006Z,-0.40
2018-12-14T03:54:15.762Z,-0.40
2018-12-14T03:56:45.446Z,-0.40
2018-12-14T03:59:14.518Z,-0.40
2018-12-14T04:01:43.672Z,-0.30
2018-12-14T04:04:12.769Z,-0.30
2018-12-14T04:06:41.858Z,-0.30
2018-12-14T04:09:10.981Z,-0.30
2018-12-14T04:11:40.152Z,-0.30
2018-12-14T04:14:09.385Z,-0.30
2018-12-14T04:16:38.497Z,-0.30
2018-12-14T04:19:07.555Z,-0.30
2018-12-14T04:21:36.637Z,-0.30
2018-12-14T04:24:06.165Z,-0.30
2018-12-14T04:26:35.245Z,-0.40
2018-12-14T04:29:04.545Z,-0.40
2018-12-14T04:31:33.648Z,-0.30
2018-12-14T04:34:02.863Z,-0.40
2018-12-14T04:36:31.936Z,-0.40
2018-12-14T04:39:01.022Z,-0.40
2018-12-14T04:41:30.125Z,-0.40
2018-12-14T04:43:59.220Z,-0.40
2018-12-14T04:46:28.298Z,-0.40
2018-12-14T04:48:57.384Z,-0.40
2018-12-14T04:51:26.456Z,-0.40
2018-12-14T04:53:55.625Z,-0.40
2018-12-14T04:56:25.193Z,-0.40
2018-12-14T04:58:54.275Z,-0.40
2018-12-14T05:01:23.353Z,-0.30
2018-12-14T05:03:52.542Z,-0.40
2018-12-14T05:06:21.625Z,-0.40
2018-12-14T05:08:50.671Z,-0.40
2018-12-14T05:11:19.851Z,-0.30
2018-12-14T05:13:48.920Z,-0.30
2018-12-14T05:16:17.987Z,-0.40
2018-12-14T05:18:47.087Z,-0.40
2018-12-14T05:21:16.149Z,-0.40
2018-12-14T05:23:45.228Z,-0.40
2018-12-14T05:26:14.304Z,-0.40
2018-12-14T05:28:43.782Z,-0.40
2018-12-14T05:31:12.846Z,-0.30
2018-12-14T05:33:42.049Z,-0.40
2018-12-14T05:36:11.129Z,-0.30
2018-12-14T05:38:40.218Z,-0.30
2018-12-14T05:41:09.346Z,-0.30
2018-12-14T05:43:38.408Z,-0.30
2018-12-14T05:46:07.528Z,-0.30
2018-12-14T05:48:36.642Z,-0.40
2018-12-14T05:51:05.721Z,-0.40
2018-12-14T05:53:34.809Z,-0.40
2018-12-14T05:56:04.041Z,-0.30
2018-12-14T05:58:33.555Z,-0.30
2018-12-14T06:01:02.609Z,-0.20
2018-12-14T06:03:31.698Z,-0.20
2018-12-14T06:06:00.825Z,-0.20
2018-12-14T06:08:30.040Z,-0.20
2018-12-14T06:10:59.123Z,-0.20
2018-12-14T06:13:28.198Z,-0.30
2018-12-14T06:15:57.250Z,-0.30
2018-12-14T06:18:26.564Z,-0.30
2018-12-14T06:20:55.916Z,-0.20
2018-12-14T06:23:24.994Z,-0.20
2018-12-14T06:25:54.070Z,-0.20
2018-12-14T06:28:23.132Z,-0.30
2018-12-14T06:30:52.180Z,-0.30
2018-12-14T06:33:22.400Z,-0.30
2018-12-14T06:35:51.472Z,-0.30
2018-12-14T06:38:20.537Z,-0.30
2018-12-14T06:40:49.656Z,-0.20
2018-12-14T06:43:18.715Z,-0.30
2018-12-14T06:45:47.772Z,-0.30
2018-12-14T06:48:17.014Z,-0.10
2018-12-14T06:50:46.634Z,-0.10
2018-12-14T06:53:16.296Z,-0.10
2018-12-14T06:55:45.398Z,-0.10
2018-12-14T06:58:14.711Z,-0.20
2018-12-14T07:00:44.210Z,-0.30
2018-12-14T07:03:13.280Z,-0.30
2018-12-14T07:05:42.357Z,-0.30
2018-12-14T07:08:11.401Z,-0.30
2018-12-14T07:10:40.489Z,-0.30
2018-12-14T07:13:09.676Z,-0.30
2018-12-14T07:15:38.741Z,-0.20
2018-12-14T07:18:07.836Z,-0.20
2018-12-14T07:20:37.339Z,-0.20
2018-12-14T07:23:06.412Z,-0.20
2018-12-14T07:25:35.566Z,-0.20
2018-12-14T07:28:04.615Z,-0.30
2018-12-14T07:30:33.667Z,-0.30
2018-12-14T07:33:02.908Z,-0.30
2018-12-14T07:35:32.610Z,-0.40
2018-12-14T07:38:01.679Z,-0.30
2018-12-14T07:40:30.749Z,-0.30
2018-12-14T07:42:59.872Z,-0.30
2018-12-14T07:45:28.936Z,-0.20
2018-12-14T07:47:57.988Z,-0.20
2018-12-14T07:50:27.163Z,-0.20
2018-12-14T07:52:58.509Z,-0.20
2018-12-14T07:55:27.888Z,-0.20
2018-12-14T07:57:56.946Z,-0.20
2018-12-14T08:00:26.010Z,-0.20
2018-12-14T08:02:55.299Z,-0.30
2018-12-14T08:05:24.352Z,-0.20
2018-12-14T08:07:53.394Z,-0.30
2018-12-14T08:10:22.680Z,-0.20
2018-12-14T08:12:52.558Z,-0.20
2018-12-14T08:15:21.730Z,-0.20
2018-12-14T08:17:50.846Z,-0.10
2018-12-14T08:20:19.912Z,-0.10
2018-12-14T08:22:49.558Z,-0.20
2018-12-14T08:25:18.646Z,-0.20
2018-12-14T08:27:47.740Z,-0.20
2018-12-14T08:30:16.786Z,-0.20
2018-12-14T08:32:45.868Z,-0.20
2018-12-14T08:35:14.917Z,-0.20
2018-12-14T08:37:43.988Z,-0.10
2018-12-14T08:40:13.089Z,-0.10
2018-12-14T08:42:42.178Z,-0.10
2018-12-14T08:45:11.234Z,0.00
2018-12-14T08:47:40.331Z,0.00
2018-12-14T08:50:09.552Z,0.10
2018-12-14T08:52:38.935Z,0.10
2018-12-14T08:55:08.067Z,0.10
2018-12-14T08:57:37.151Z,0.10
2018-12-14T09:00:06.683Z,0.20
2018-12-14T09:02:35.779Z,0.20
2018-12-14T09:05:05.705Z,0.30
2018-12-14T09:07:34.782Z,0.20
2018-12-14T09:10:04.399Z,0.40
2018-12-14T09:12:33.431Z,0.40
2018-12-14T09:15:02.521Z,0.40
2018-12-14T09:17:31.767Z,0.30
2018-12-14T09:20:01.013Z,0.20
2018-12-14T09:22:30.071Z,0.20
2018-12-14T09:24:59.220Z,0.20
2018-12-14T09:27:28.409Z,0.20
2018-12-14T09:29:57.479Z,0.20
2018-12-14T09:32:26.589Z,0.30
2018-12-14T09:34:55.785Z,0.30
2018-12-14T09:37:25.200Z,0.30
2018-12-14T09:39:54.251Z,0.20
2018-12-14T09:42:23.327Z,0.20
2018-12-14T09:44:52.429Z,0.30
2018-12-14T09:47:21.552Z,0.40
2018-12-14T09:49:50.705Z,0.40
2018-12-14T09:52:19.811Z,0.50
2018-12-14T09:54:49.063Z,0.50
2018-12-14T09:57:18.055Z,0.50
2018-12-14T09:59:47.227Z,0.50
2018-12-14T10:02:16.299Z,0.60
2018-12-14T10:04:45.573Z,0.60
2018-12-14T10:07:15.255Z,0.60
2018-12-14T10:09:44.249Z,0.60
2018-12-14T10:12:13.287Z,0.60
2018-12-14T10:14:42.370Z,0.60
2018-12-14T10:17:11.442Z,0.70
2018-12-14T10:19:40.484Z,0.80
2018-12-14T10:22:09.599Z,0.70
2018-12-14T10:24:38.723Z,0.70
2018-12-14T10:27:07.812Z,0.60
2018-12-14T10:29:37.099Z,0.70
2018-12-14T10:32:06.181Z,0.70
2018-12-14T10:34:35.249Z,0.80
2018-12-14T10:37:04.293Z,0.90
2018-12-14T10:39:33.343Z,1.00
2018-12-14T10:42:02.448Z,1.00
2018-12-14T10:44:31.631Z,1.00
2018-12-14T10:47:01.222Z,0.80
2018-12-14T10:49:30.434Z,0.90
2018-12-14T10:52:00.118Z,1.00
2018-12-14T10:54:29.559Z,0.90
2018-12-14T10:56:58.751Z,0.80
2018-12-14T10:59:27.790Z,0.80
2018-12-14T11:02:03.896Z,0.80
2018-12-14T11:04:32.983Z,1.00
2018-12-14T11:07:02.045Z,1.00
2018-12-14T11:09:31.747Z,1.00
2018-12-14T11:12:00.978Z,0.90
2018-12-14T11:14:30.028Z,0.90
2018-12-14T11:16:59.347Z,0.90
2018-12-14T11:19:28.620Z,0.90
2018-12-14T11:21:57.790Z,0.80
2018-12-14T11:24:27.489Z,0.90
2018-12-14T11:26:56.560Z,1.00
2018-12-14T11:29:25.653Z,1.10
2018-12-14T11:31:54.788Z,1.10
2018-12-14T11:34:29.684Z,1.10
2018-12-14T11:36:55.524Z,1.20
2018-12-14T11:39:25.132Z,1.30
2018-12-14T11:41:54.200Z,1.30
2018-12-14T11:44:23.983Z,1.20
2018-12-14T11:46:53.581Z,1.30
2018-12-14T11:49:23.002Z,1.20
2018-12-14T11:51:52.724Z,1.10
2018-12-14T11:54:22.003Z,1.30
2018-12-14T11:56:51.049Z,1.30
2018-12-14T11:59:21.072Z,1.30
2018-12-14T12:01:50.124Z,1.30
2018-12-14T12:04:19.168Z,1.30
2018-12-14T12:06:48.395Z,1.40
2018-12-14T12:09:17.474Z,1.30
2018-12-14T12:11:46.543Z,1.30
2018-12-14T12:14:15.699Z,1.40
2018-12-14T12:16:44.842Z,1.40
2018-12-14T12:19:13.908Z,1.40
2018-12-14T12:21:43.203Z,1.40
2018-12-14T12:24:12.392Z,1.50
2018-12-14T12:26:41.466Z,1.40
2018-12-14T12:29:10.546Z,1.40
2018-12-14T12:31:39.715Z,1.50
2018-12-14T12:34:08.750Z,1.40
2018-12-14T12:36:37.880Z,1.40
2018-12-14T12:39:07.796Z,1.30
2018-12-14T12:41:36.858Z,1.20
2018-12-14T12:44:05.926Z,1.20
2018-12-14T12:46:35.003Z,1.30
2018-12-14T12:49:04.040Z,1.30
2018-12-14T12:51:33.967Z,1.20
2018-12-14T12:54:02.973Z,1.20
2018-12-14T12:56:32.527Z,1.30
2018-12-14T12:59:01.719Z,1.30
2018-12-14T13:01:30.711Z,1.20
2018-12-14T13:03:59.964Z,1.10
2018-12-14T13:06:35.629Z,1.20
2018-12-14T13:09:06.210Z,1.20
2018-12-14T13:11:35.311Z,1.30
2018-12-14T13:14:04.662Z,1.30
2018-12-14T13:16:33.756Z,1.40
2018-12-14T13:19:02.880Z,1.50
2018-12-14T13:21:31.940Z,1.50
2018-12-14T13:24:01.070Z,1.60
2018-12-14T13:26:30.152Z,1.70
2018-12-14T13:28:59.240Z,1.60
2018-12-14T13:31:28.305Z,1.40
2018-12-14T13:33:57.796Z,1.50
2018-12-14T13:36:27.108Z,1.50
2018-12-14T13:38:56.473Z,1.30
2018-12-14T13:41:25.553Z,1.40
2018-12-14T13:43:54.604Z,1.50
2018-12-14T13:46:23.776Z,1.50
2018-12-14T13:48:52.909Z,1.50
2018-12-14T13:51:22.080Z,1.50
2018-12-14T13:53:51.686Z,1.30
2018-12-14T13:56:20.736Z,1.30
2018-12-14T13:58:49.799Z,1.30
2018-12-14T14:01:18.891Z,1.30
2018-12-14T14:03:47.979Z,1.30
2018-12-14T14:06:17.194Z,1.20
2018-12-14T14:08:46.499Z,1.10
2018-12-14T14:11:15.583Z,1.20
2018-12-14T14:13:44.671Z,1.10
2018-12-14T14:16:21.511Z,1.10
2018-12-14T14:31:41.724Z,1.00
2018-12-14T14:34:10.806Z,1.00
2018-12-14T14:36:40.469Z,1.00
2018-12-14T14:39:10.294Z,1.00
2018-12-14T14:41:40.552Z,1.00
2018-12-14T14:44:09.834Z,0.90
2018-12-14T14:46:39.586Z,0.90
2018-12-14T14:49:24.940Z,0.80
2018-12-14T14:51:56.213Z,0.70
2018-12-14T14:54:26.053Z,0.70
2018-12-14T14:56:56.594Z,0.70
2018-12-14T14:59:26.540Z,0.80
2018-12-14T15:01:55.736Z,0.80
2018-12-14T15:04:24.810Z,0.80
2018-12-14T15:06:53.876Z,0.70
2018-12-14T15:09:22.964Z,0.70
2018-12-14T15:11:52.062Z,0.70
2018-12-14T15:14:21.130Z,0.70
2018-12-14T15:16:50.210Z,0.60
2018-12-14T15:19:19.270Z,0.60
2018-12-14T15:21:48.412Z,0.60
2018-12-14T15:24:17.519Z,0.50
2018-12-14T15:26:46.575Z,0.50
2018-12-14T15:29:15.635Z,0.50
2018-12-14T15:31:45.348Z,0.50
2018-12-14T15:34:14.698Z,0.60
2018-12-14T15:36:44.389Z,0.50
2018-12-14T15:39:13.856Z,0.50
2018-12-14T15:41:42.928Z,0.50
2018-12-14T15:44:11.997Z,0.50
2018-12-14T15:46:41.078Z,0.50
2018-12-14T15:49:10.340Z,0.50
2018-12-14T15:51:39.412Z,0.40
2018-12-14T15:54:08.556Z,0.40
2018-12-14T15:56:38.223Z,0.30
2018-12-14T15:59:07.271Z,0.50
2018-12-14T16:01:36.384Z,0.40
2018-12-14T16:04:05.432Z,0.40
2018-12-14T16:06:34.484Z,0.40
2018-12-14T16:09:04.324Z,0.40
2018-12-14T16:11:33.375Z,0.40
2018-12-14T16:14:02.657Z,0.40
2018-12-14T16:16:31.875Z,0.40
2018-12-14T16:19:00.988Z,0.40
2018-12-14T16:21:30.197Z,0.50
2018-12-14T16:23:59.566Z,0.50
2018-12-14T16:26:28.697Z,0.50
2018-12-14T16:28:57.752Z,0.40
2018-12-14T16:31:27.292Z,0.40
2018-12-14T16:33:56.364Z,0.50
2018-12-14T16:36:25.464Z,0.40
2018-12-14T16:38:55.023Z,0.40
2018-12-14T16:41:24.207Z,0.40
2018-12-14T16:43:53.278Z,0.50
2018-12-14T16:46:22.384Z,0.50
2018-12-14T16:48:51.479Z,0.50
2018-12-14T16:51:20.685Z,0.40
2018-12-14T16:53:55.051Z,0.40
2018-12-14T16:56:24.115Z,0.40
2018-12-14T16:58:53.636Z,0.40
2018-12-14T17:01:23.252Z,0.40
2018-12-14T17:03:52.289Z,0.50
2018-12-14T17:06:21.528Z,0.50
2018-12-14T17:08:50.926Z,0.50
2018-12-14T17:11:19.987Z,0.50
2018-12-14T17:13:49.020Z,0.40
2018-12-14T17:16:18.183Z,0.30
2018-12-14T17:18:47.225Z,0.40
2018-12-14T17:21:16.566Z,0.40
2018-12-14T17:23:46.015Z,0.40
2018-12-14T17:26:15.081Z,0.30
2018-12-14T17:28:44.293Z,0.30
2018-12-14T17:31:13.424Z,0.30
2018-12-14T17:33:42.535Z,0.90
2018-12-14T17:36:11.657Z,0.60
2018-12-14T17:38:40.951Z,0.50
2018-12-14T17:41:10.081Z,0.40
2018-12-14T17:43:39.213Z,0.40
2018-12-14T17:46:08.365Z,0.30
2018-12-14T17:48:37.489Z,0.30
2018-12-14T17:51:06.587Z,0.20
2018-12-14T17:53:35.713Z,0.20
2018-12-14T17:56:04.852Z,0.10
2018-12-14T17:58:34.090Z,0.10
2018-12-14T18:01:03.295Z,0.20
2018-12-14T18:03:32.425Z,0.20
2018-12-14T18:06:01.539Z,0.20
2018-12-14T18:08:30.643Z,0.20
2018-12-14T18:10:59.827Z,0.20
2018-12-14T18:13:28.933Z,0.10
2018-12-14T18:15:58.647Z,0.00
2018-12-14T18:18:27.796Z,0.00
2018-12-14T18:20:56.894Z,0.10
2018-12-14T18:23:25.972Z,0.10
2018-12-14T18:25:55.153Z,0.00
2018-12-14T18:28:24.243Z,0.10
2018-12-14T18:30:53.338Z,0.00
2018-12-14T18:33:22.474Z,0.00
2018-12-14T18:35:51.542Z,0.00
2018-12-14T18:38:20.647Z,0.00
2018-12-14T18:40:49.778Z,0.00
2018-12-14T18:43:18.895Z,0.00
2018-12-14T18:45:53.075Z,0.00
2018-12-14T18:48:19.185Z,0.00
2018-12-14T18:50:48.285Z,-0.10
2018-12-14T18:53:17.395Z,-0.10
2018-12-14T18:55:46.621Z,-0.10
2018-12-14T18:58:15.720Z,-0.10
2018-12-14T19:00:44.879Z,-0.20
2018-12-14T19:03:14.508Z,-0.20
2018-12-14T19:05:43.552Z,-0.30
2018-12-14T19:08:12.708Z,-0.20
2018-12-14T19:10:41.787Z,-0.20
2018-12-14T19:13:10.910Z,-0.20
2018-12-14T19:15:40.063Z,-0.20
2018-12-14T19:18:09.363Z,-0.20
2018-12-14T19:20:38.459Z,-0.20
2018-12-14T19:23:07.697Z,-0.30
2018-12-14T19:25:36.804Z,-0.30
2018-12-14T19:28:05.956Z,-0.40
2018-12-14T19:30:35.051Z,-0.40
2018-12-14T19:33:04.148Z,-0.50
2018-12-14T19:35:33.362Z,-0.40
2018-12-14T19:38:02.438Z,-0.40
2018-12-14T19:40:31.641Z,-0.40
2018-12-14T19:43:00.752Z,-0.40
2018-12-14T19:45:29.902Z,-0.40
2018-12-14T19:47:59.035Z,-0.40
2018-12-14T19:50:28.304Z,-0.50
2018-12-14T19:52:57.404Z,-0.50
2018-12-14T19:55:26.519Z,-0.50
2018-12-14T19:57:55.730Z,-0.60
2018-12-14T20:00:24.855Z,-0.60
2018-12-14T20:02:53.982Z,-0.60
2018-12-14T20:05:23.445Z,-0.60
2018-12-14T20:07:52.529Z,-0.70
2018-12-14T20:10:21.719Z,-0.70
2018-12-14T20:12:50.920Z,-0.80
2018-12-14T20:15:20.015Z,-0.70
2018-12-14T20:17:49.106Z,-0.70
2018-12-14T20:20:18.201Z,-0.60
2018-12-14T20:22:47.282Z,-0.60
2018-12-14T20:25:16.371Z,-0.60
2018-12-14T20:27:45.515Z,-0.60
2018-12-14T20:30:14.623Z,-0.50
2018-12-14T20:32:43.721Z,-0.50
2018-12-14T20:35:12.887Z,-0.50
2018-12-14T20:37:41.948Z,-0.60
2018-12-14T20:40:11.055Z,-0.50
2018-12-14T20:42:40.147Z,-0.50
2018-12-14T20:45:09.380Z,-0.50
2018-12-14T20:47:38.474Z,-0.40
2018-12-14T20:50:08.419Z,-0.40
2018-12-14T20:52:37.509Z,-0.30
2018-12-14T20:55:09.001Z,-0.30
2018-12-14T20:57:38.110Z,-0.30
2018-12-14T21:00:09.931Z,-0.30
2018-12-14T21:02:39.145Z,-0.30
2018-12-14T21:05:08.243Z,-0.30
2018-12-14T21:07:37.645Z,-0.40
2018-12-14T21:10:08.081Z,-0.40
2018-12-14T21:12:37.452Z,-0.40
2018-12-14T21:15:08.107Z,-0.30
2018-12-14T21:17:37.201Z,-0.30
2018-12-14T21:20:07.459Z,-0.30
2018-12-14T21:22:36.571Z,-0.30
2018-12-14T21:25:05.959Z,-0.30
2018-12-14T21:27:35.079Z,-0.30
2018-12-14T21:30:05.448Z,-0.30
2018-12-14T21:32:34.582Z,-0.30
2018-12-14T21:35:03.965Z,-0.30
2018-12-14T21:37:33.024Z,-0.30
2018-12-14T21:40:02.400Z,-0.40
2018-12-14T21:42:31.471Z,-0.30
2018-12-14T21:45:00.534Z,-0.30
2018-12-14T21:47:29.689Z,-0.30
2018-12-14T21:49:58.799Z,-0.30
2018-12-14T21:52:27.917Z,-0.30
2018-12-14T21:54:57.055Z,-0.30
2018-12-14T21:57:27.041Z,-0.30
2018-12-14T21:59:56.129Z,-0.40
2018-12-14T22:02:25.237Z,-0.40
2018-12-14T22:04:54.341Z,-0.40
2018-12-14T22:07:23.478Z,-0.30
2018-12-14T22:09:52.893Z,-0.30
2018-12-14T22:12:21.960Z,-0.30
2018-12-14T22:14:51.035Z,-0.30
2018-12-14T22:17:20.253Z,-0.40
2018-12-14T22:19:49.386Z,-0.40
2018-12-14T22:22:18.494Z,-0.40
2018-12-14T22:24:47.567Z,-0.40
2018-12-14T22:27:16.659Z,-0.40
2018-12-14T22:29:45.782Z,-0.40
2018-12-14T22:32:14.843Z,-0.40
2018-12-14T22:34:43.895Z,-0.40
2018-12-14T22:37:12.989Z,-0.40
2018-12-14T22:39:42.164Z,-0.40
2018-12-14T22:42:11.240Z,-0.40
2018-12-14T22:44:40.413Z,-0.40
2018-12-14T22:47:09.494Z,-0.40
2018-12-14T22:49:38.590Z,-0.40
2018-12-14T22:52:07.729Z,-0.40
2018-12-14T22:54:36.793Z,-0.40
2018-12-14T22:57:05.883Z,-0.40
2018-12-14T22:59:34.977Z,-0.30
2018-12-14T23:02:04.060Z,-0.30
2018-12-14T23:04:33.171Z,-0.30
2018-12-14T23:07:02.310Z,-0.30
2018-12-14T23:09:31.386Z,-0.30
2018-12-14T23:12:00.645Z,-0.40
2018-12-14T23:14:29.754Z,-0.40
2018-12-14T23:16:58.836Z,-0.40
2018-12-14T23:19:27.997Z,-0.40
2018-12-14T23:21:57.097Z,-0.40
2018-12-14T23:24:26.319Z,-0.40
2018-12-14T23:26:55.387Z,-0.40
2018-12-14T23:29:24.499Z,-0.40
2018-12-14T23:31:53.561Z,-0.40
2018-12-14T23:34:22.658Z,-0.40
2018-12-14T23:36:51.765Z,-0.40
2018-12-14T23:39:20.867Z,-0.40
2018-12-14T23:41:49.953Z,-0.40
2018-12-14T23:44:19.048Z,-0.40
2018-12-14T23:46:48.119Z,-0.40
2018-12-14T23:49:17.179Z,-0.40
2018-12-14T23:51:46.402Z,-0.40
2018-12-14T23:54:15.495Z,-0.40
2018-12-14T23:56:44.542Z,-0.40
2018-12-14T23:59:13.647Z,-0.40
